Terminal Aerodrome Forecast
Issued by NWS

Home | Current Version | Previous Version | Text Only | Print | Product List | Glossary On
Versions: 1 2 3 4 5 6 7 8 9 10 11 12 13 14 15 16 17 18 19 20 21 22 23 24 25 26 27 28
561
FTUS41 KBUF 210538
TAFJHW
TAF
KJHW 210538Z 2106/2206 19010KT P6SM FEW250 WS015/22045KT
     FM211300 20014G21KT P6SM FEW250 WS015/22045KT
     FM211500 20017G28KT P6SM SCT250
     FM211800 21017G28KT P6SM SCT150 BKN200
     FM212200 21013G22KT P6SM BKN045
     FM220100 23012G19KT P6SM VCSH OVC035
     FM220200 24011G18KT 6SM -SHRA OVC020
      AMD LTD TO CLD VIS AND WIND=

USA.gov is the U.S. government's official web portal to all federal, state and local government web resources and services.